VOCB/CJB METAR and TAF weather

Enter ICAO airport designator
Station Type Date Time Source
VOCB METAR 2019/08/18 09:30 UTC NOAA

VOCB 180930Z VRB02KT 5000 BR FEW012 BKN080 28/22 Q1009 NOSIG


Station Type Date Time Source
VOCB Decoded METAR 2019/08/18 09:30 UTC NOAA

Station name not available
Aug 18, 2019 - 05:30 AM EDT / 2019.08.18 0930 UTC
Wind: Variable at 2 MPH (2 KT):0
Visibility: 3 mile(s):0
Sky conditions: mostly cloudy
Weather: mist
Temperature: 82 F (28 C)
Dew Point: 71 F (22 C)
Relative Humidity: 69%
Pressure (altimeter): 29.80 in. Hg (1009 hPa)
ob: VOCB 180930Z VRB02KT 5000 BR FEW012 BKN080 28/22 Q1009 NOSIG
cycle: 9

Station Type Date Time Source
VOCB TAF 2019/08/18 06:00 UTC NOAA

TAF VOCB 180500Z 1806/1912 20010KT 5000 -DZ/HZ SCT012 BKN080
TEMPO 1812/1818 4000 -TSRA/RA SCT012 FEW020TCU/CB BKN080
BECMG 1814/1815 4000 BR
TEMPO 1900/1903 3000 BR
BECMG 1905/1906 6000

Example: see airport list